Crown King, Arizona
Current Conditions -  °F | °C
As of 8:53 PM on Friday 24 Oct 2014 (Local Time) from KPRC Reporting Station
Clear Clear  
Wind Chill: 60°   Ceiling: Unl
Heat Index: 60°   Visibility: 10mi
Dew Point: 39°   Wind: 0mph
Humidity: 46%   Direction: NA
Pressure: 30.25"   Gusts: NA
Location:  34.21°N, 112.34°W
Report Text: KPRC 250353Z 00000KT 10SM CLR 16/04 A3025 RMK AO2 SLP186 T01560039
Loading
Personal Weather Stations






























Interactive Weather Map
Tropical Storm Tracking
New forecast layout! Learn more

10-Day Weather Forecast

Advertisements
Track Severe Weather on mobile